sensor_id;sensor_type;location;lat;lon;timestamp;temperature;humidity
46784;DHT22;32544;52.832;13.816;2024-03-06T00:00:41;22.90;48.20
46784;DHT22;32544;52.832;13.816;2024-03-06T00:01:41;22.90;48.10
46784;DHT22;32544;52.832;13.816;2024-03-06T00:02:42;22.90;48.10
46784;DHT22;32544;52.832;13.816;2024-03-06T00:03:42;22.90;48.10
46784;DHT22;32544;52.832;13.816;2024-03-06T00:04:43;22.90;48.10
46784;DHT22;32544;52.832;13.816;2024-03-06T00:05:43;22.90;48.10
46784;DHT22;32544;52.832;13.816;2024-03-06T00:06:44;22.90;48.10
46784;DHT22;32544;52.832;13.816;2024-03-06T00:07:44;22.90;48.10
46784;DHT22;32544;52.832;13.816;2024-03-06T00:08:45;22.90;48.10
46784;DHT22;32544;52.832;13.816;2024-03-06T00:09:46;22.90;48.10
46784;DHT22;32544;52.832;13.816;2024-03-06T00:10:46;22.90;48.10
46784;DHT22;32544;52.832;13.816;2024-03-06T00:11:47;22.90;48.10
46784;DHT22;32544;52.832;13.816;2024-03-06T00:12:48;22.90;48.70
46784;DHT22;32544;52.832;13.816;2024-03-06T00:13:49;22.90;48.10
46784;DHT22;32544;52.832;13.816;2024-03-06T00:14:49;22.90;48.10
46784;DHT22;32544;52.832;13.816;2024-03-06T00:15:50;22.90;48.10
46784;DHT22;32544;52.832;13.816;2024-03-06T00:16:50;22.90;48.10
46784;DHT22;32544;52.832;13.816;2024-03-06T00:17:51;22.90;48.10
46784;DHT22;32544;52.832;13.816;2024-03-06T00:18:52;22.90;48.10
46784;DHT22;32544;52.832;13.816;2024-03-06T00:19:52;22.80;48.00
46784;DHT22;32544;52.832;13.816;2024-03-06T00:20:53;22.90;48.10
46784;DHT22;32544;52.832;13.816;2024-03-06T00:21:53;22.90;48.70
46784;DHT22;32544;52.832;13.816;2024-03-06T00:22:54;22.80;48.10
46784;DHT22;32544;52.832;13.816;2024-03-06T00:23:55;22.90;48.10
46784;DHT22;32544;52.832;13.816;2024-03-06T00:24:55;22.80;48.00
46784;DHT22;32544;52.832;13.816;2024-03-06T00:25:56;22.90;48.10
46784;DHT22;32544;52.832;13.816;2024-03-06T00:26:57;22.80;48.10
46784;DHT22;32544;52.832;13.816;2024-03-06T00:27:57;22.80;48.00
46784;DHT22;32544;52.832;13.816;2024-03-06T00:28:58;22.80;48.00
46784;DHT22;32544;52.832;13.816;2024-03-06T00:29:58;22.80;47.90
46784;DHT22;32544;52.832;13.816;2024-03-06T00:30:59;22.80;47.90
46784;DHT22;32544;52.832;13.816;2024-03-06T00:31:59;22.80;47.80
46784;DHT22;32544;52.832;13.816;2024-03-06T00:33:00;22.80;47.80
46784;DHT22;32544;52.832;13.816;2024-03-06T00:34:00;22.80;47.80
46784;DHT22;32544;52.832;13.816;2024-03-06T00:35:01;22.80;47.80
46784;DHT22;32544;52.832;13.816;2024-03-06T00:36:02;22.80;47.80
46784;DHT22;32544;52.832;13.816;2024-03-06T00:37:02;22.90;47.90
46784;DHT22;32544;52.832;13.816;2024-03-06T00:38:03;22.80;47.80
46784;DHT22;32544;52.832;13.816;2024-03-06T00:39:03;22.80;47.80
46784;DHT22;32544;52.832;13.816;2024-03-06T00:40:05;22.80;47.80
46784;DHT22;32544;52.832;13.816;2024-03-06T00:41:06;22.80;47.80
46784;DHT22;32544;52.832;13.816;2024-03-06T00:42:07;22.80;47.80
46784;DHT22;32544;52.832;13.816;2024-03-06T00:43:09;22.80;47.80
46784;DHT22;32544;52.832;13.816;2024-03-06T00:44:09;22.80;47.80
46784;DHT22;32544;52.832;13.816;2024-03-06T00:45:10;22.80;47.80
46784;DHT22;32544;52.832;13.816;2024-03-06T00:46:11;22.90;47.90
46784;DHT22;32544;52.832;13.816;2024-03-06T00:47:12;22.90;47.80
46784;DHT22;32544;52.832;13.816;2024-03-06T00:48:12;22.90;47.80
46784;DHT22;32544;52.832;13.816;2024-03-06T00:49:13;22.90;47.80
46784;DHT22;32544;52.832;13.816;2024-03-06T00:50:13;22.90;47.80
46784;DHT22;32544;52.832;13.816;2024-03-06T00:51:14;22.90;47.80
46784;DHT22;32544;52.832;13.816;2024-03-06T00:52:14;22.90;47.80
46784;DHT22;32544;52.832;13.816;2024-03-06T00:53:15;22.90;47.80
46784;DHT22;32544;52.832;13.816;2024-03-06T00:54:15;22.90;47.80
46784;DHT22;32544;52.832;13.816;2024-03-06T00:55:16;22.90;47.80
46784;DHT22;32544;52.832;13.816;2024-03-06T00:56:17;22.90;47.80
46784;DHT22;32544;52.832;13.816;2024-03-06T00:57:17;22.90;47.80
46784;DHT22;32544;52.832;13.816;2024-03-06T00:58:18;22.90;47.80
46784;DHT22;32544;52.832;13.816;2024-03-06T00:59:18;22.90;47.80
46784;DHT22;32544;52.832;13.816;2024-03-06T01:00:19;22.90;47.80
46784;DHT22;32544;52.832;13.816;2024-03-06T01:01:19;22.90;47.80
46784;DHT22;32544;52.832;13.816;2024-03-06T01:02:20;22.90;47.80
46784;DHT22;32544;52.832;13.816;2024-03-06T01:03:21;22.90;47.80
46784;DHT22;32544;52.832;13.816;2024-03-06T01:04:22;22.80;47.70
46784;DHT22;32544;52.832;13.816;2024-03-06T01:05:22;22.90;47.80
46784;DHT22;32544;52.832;13.816;2024-03-06T01:06:23;22.90;47.70
46784;DHT22;32544;52.832;13.816;2024-03-06T01:07:23;22.90;47.70
46784;DHT22;32544;52.832;13.816;2024-03-06T01:08:24;22.90;47.70
46784;DHT22;32544;52.832;13.816;2024-03-06T01:09:25;22.90;47.70
46784;DHT22;32544;52.832;13.816;2024-03-06T01:10:27;22.90;47.70
46784;DHT22;32544;52.832;13.816;2024-03-06T01:11:27;22.90;47.70
46784;DHT22;32544;52.832;13.816;2024-03-06T01:12:28;22.90;47.70
46784;DHT22;32544;52.832;13.816;2024-03-06T01:13:29;22.90;47.70
46784;DHT22;32544;52.832;13.816;2024-03-06T01:14:29;22.90;47.80
46784;DHT22;32544;52.832;13.816;2024-03-06T01:15:31;22.90;47.70
46784;DHT22;32544;52.832;13.816;2024-03-06T01:16:31;22.80;47.70
46784;DHT22;32544;52.832;13.816;2024-03-06T01:17:32;22.90;47.80
46784;DHT22;32544;52.832;13.816;2024-03-06T01:18:32;22.90;47.80
46784;DHT22;32544;52.832;13.816;2024-03-06T01:19:33;22.90;47.80
46784;DHT22;32544;52.832;13.816;2024-03-06T01:20:33;22.90;47.80
46784;DHT22;32544;52.832;13.816;2024-03-06T01:21:34;22.90;47.80
46784;DHT22;32544;52.832;13.816;2024-03-06T01:22:34;22.90;47.80
46784;DHT22;32544;52.832;13.816;2024-03-06T01:23:35;22.90;47.80
46784;DHT22;32544;52.832;13.816;2024-03-06T01:24:36;22.90;47.80
46784;DHT22;32544;52.832;13.816;2024-03-06T01:25:36;22.80;47.70
46784;DHT22;32544;52.832;13.816;2024-03-06T01:26:37;22.90;47.80
46784;DHT22;32544;52.832;13.816;2024-03-06T01:27:38;22.90;47.80
46784;DHT22;32544;52.832;13.816;2024-03-06T01:28:38;22.90;47.80
46784;DHT22;32544;52.832;13.816;2024-03-06T01:29:39;22.90;47.80
46784;DHT22;32544;52.832;13.816;2024-03-06T01:30:39;22.90;47.80
46784;DHT22;32544;52.832;13.816;2024-03-06T01:31:40;22.90;48.40
46784;DHT22;32544;52.832;13.816;2024-03-06T01:32:40;22.90;47.80
46784;DHT22;32544;52.832;13.816;2024-03-06T01:33:41;22.90;47.80
46784;DHT22;32544;52.832;13.816;2024-03-06T01:34:42;22.90;47.70
46784;DHT22;32544;52.832;13.816;2024-03-06T01:35:42;22.90;47.70
46784;DHT22;32544;52.832;13.816;2024-03-06T01:36:43;22.90;47.70
46784;DHT22;32544;52.832;13.816;2024-03-06T01:37:43;22.90;47.70
46784;DHT22;32544;52.832;13.816;2024-03-06T01:38:44;22.90;47.80
46784;DHT22;32544;52.832;13.816;2024-03-06T01:39:46;22.90;47.80
46784;DHT22;32544;52.832;13.816;2024-03-06T01:40:47;22.90;47.80
46784;DHT22;32544;52.832;13.816;2024-03-06T01:41:48;22.90;47.70
46784;DHT22;32544;52.832;13.816;2024-03-06T01:42:49;22.90;47.80
46784;DHT22;32544;52.832;13.816;2024-03-06T01:43:49;22.90;47.80
46784;DHT22;32544;52.832;13.816;2024-03-06T01:44:50;22.90;47.70
46784;DHT22;32544;52.832;13.816;2024-03-06T01:45:51;22.90;47.70
46784;DHT22;32544;52.832;13.816;2024-03-06T01:46:53;22.90;47.80
46784;DHT22;32544;52.832;13.816;2024-03-06T01:47:54;22.90;47.70
46784;DHT22;32544;52.832;13.816;2024-03-06T01:48:55;22.90;47.80
46784;DHT22;32544;52.832;13.816;2024-03-06T01:49:56;22.80;47.60
46784;DHT22;32544;52.832;13.816;2024-03-06T01:50:58;22.90;47.60
46784;DHT22;32544;52.832;13.816;2024-03-06T01:52:00;22.80;47.50
46784;DHT22;32544;52.832;13.816;2024-03-06T01:53:01;22.90;47.60
46784;DHT22;32544;52.832;13.816;2024-03-06T01:54:02;22.80;47.50
46784;DHT22;32544;52.832;13.816;2024-03-06T01:55:04;22.90;47.50
46784;DHT22;32544;52.832;13.816;2024-03-06T01:56:05;22.90;47.50
46784;DHT22;32544;52.832;13.816;2024-03-06T01:57:07;22.90;47.50
46784;DHT22;32544;52.832;13.816;2024-03-06T01:58:08;22.90;47.50
46784;DHT22;32544;52.832;13.816;2024-03-06T01:59:09;22.90;47.50
46784;DHT22;32544;52.832;13.816;2024-03-06T02:00:10;22.80;47.40
46784;DHT22;32544;52.832;13.816;2024-03-06T02:01:14;22.80;47.50
46784;DHT22;32544;52.832;13.816;2024-03-06T02:02:16;22.80;47.50
46784;DHT22;32544;52.832;13.816;2024-03-06T02:03:17;22.80;47.50
46784;DHT22;32544;52.832;13.816;2024-03-06T02:04:19;22.80;47.50
46784;DHT22;32544;52.832;13.816;2024-03-06T02:05:20;22.80;47.50
46784;DHT22;32544;52.832;13.816;2024-03-06T02:06:21;22.90;47.50
46784;DHT22;32544;52.832;13.816;2024-03-06T02:07:21;22.80;47.50
46784;DHT22;32544;52.832;13.816;2024-03-06T02:08:23;22.80;47.50
46784;DHT22;32544;52.832;13.816;2024-03-06T02:09:23;22.80;47.50
46784;DHT22;32544;52.832;13.816;2024-03-06T02:10:24;22.80;47.50
46784;DHT22;32544;52.832;13.816;2024-03-06T02:11:26;22.80;47.50
46784;DHT22;32544;52.832;13.816;2024-03-06T02:12:27;22.80;47.50
46784;DHT22;32544;52.832;13.816;2024-03-06T02:13:28;22.80;47.50
46784;DHT22;32544;52.832;13.816;2024-03-06T02:14:29;22.80;47.50
46784;DHT22;32544;52.832;13.816;2024-03-06T02:15:29;22.80;47.50
46784;DHT22;32544;52.832;13.816;2024-03-06T02:16:30;22.80;47.50
46784;DHT22;32544;52.832;13.816;2024-03-06T02:17:31;22.80;47.50
46784;DHT22;32544;52.832;13.816;2024-03-06T02:18:31;22.80;47.50
46784;DHT22;32544;52.832;13.816;2024-03-06T02:19:39;22.80;47.50
46784;DHT22;32544;52.832;13.816;2024-03-06T02:20:40;22.80;47.50
46784;DHT22;32544;52.832;13.816;2024-03-06T02:21:40;22.80;47.50
46784;DHT22;32544;52.832;13.816;2024-03-06T02:22:41;22.80;47.50
46784;DHT22;32544;52.832;13.816;2024-03-06T02:23:41;22.80;47.50
46784;DHT22;32544;52.832;13.816;2024-03-06T02:24:47;22.80;47.50
46784;DHT22;32544;52.832;13.816;2024-03-06T02:25:48;22.80;47.50
46784;DHT22;32544;52.832;13.816;2024-03-06T02:26:49;22.80;47.50
46784;DHT22;32544;52.832;13.816;2024-03-06T02:27:50;22.80;47.50
46784;DHT22;32544;52.832;13.816;2024-03-06T02:28:51;22.80;47.50
46784;DHT22;32544;52.832;13.816;2024-03-06T02:29:52;22.80;47.50
46784;DHT22;32544;52.832;13.816;2024-03-06T02:30:52;22.80;47.50
46784;DHT22;32544;52.832;13.816;2024-03-06T02:31:53;22.80;47.50
46784;DHT22;32544;52.832;13.816;2024-03-06T02:32:53;22.80;47.50
46784;DHT22;32544;52.832;13.816;2024-03-06T02:33:54;22.80;47.50
46784;DHT22;32544;52.832;13.816;2024-03-06T02:34:54;22.80;47.50
46784;DHT22;32544;52.832;13.816;2024-03-06T02:35:55;22.80;47.50
46784;DHT22;32544;52.832;13.816;2024-03-06T02:36:55;22.80;47.50
46784;DHT22;32544;52.832;13.816;2024-03-06T02:37:59;22.80;47.50
46784;DHT22;32544;52.832;13.816;2024-03-06T02:38:59;22.80;47.50
46784;DHT22;32544;52.832;13.816;2024-03-06T02:40:00;22.80;47.50
46784;DHT22;32544;52.832;13.816;2024-03-06T02:41:00;22.80;47.50
46784;DHT22;32544;52.832;13.816;2024-03-06T02:42:01;22.80;47.50
46784;DHT22;32544;52.832;13.816;2024-03-06T02:43:02;22.80;47.50
46784;DHT22;32544;52.832;13.816;2024-03-06T02:44:02;22.80;47.50
46784;DHT22;32544;52.832;13.816;2024-03-06T02:45:04;22.80;47.50
46784;DHT22;32544;52.832;13.816;2024-03-06T02:46:05;22.90;47.50
46784;DHT22;32544;52.832;13.816;2024-03-06T02:47:06;22.90;47.50
46784;DHT22;32544;52.832;13.816;2024-03-06T02:48:06;22.80;47.50
46784;DHT22;32544;52.832;13.816;2024-03-06T02:49:07;22.80;47.50
46784;DHT22;32544;52.832;13.816;2024-03-06T02:50:07;22.80;47.50
46784;DHT22;32544;52.832;13.816;2024-03-06T02:51:08;22.90;47.50
46784;DHT22;32544;52.832;13.816;2024-03-06T02:52:08;22.80;47.50
46784;DHT22;32544;52.832;13.816;2024-03-06T02:53:09;22.80;47.50
46784;DHT22;32544;52.832;13.816;2024-03-06T02:54:10;22.90;47.50
46784;DHT22;32544;52.832;13.816;2024-03-06T02:55:10;22.80;47.50
46784;DHT22;32544;52.832;13.816;2024-03-06T02:56:17;22.80;47.50
46784;DHT22;32544;52.832;13.816;2024-03-06T02:57:18;22.80;47.50
46784;DHT22;32544;52.832;13.816;2024-03-06T02:58:19;22.90;47.50
46784;DHT22;32544;52.832;13.816;2024-03-06T02:59:19;22.90;47.50
46784;DHT22;32544;52.832;13.816;2024-03-06T03:00:20;22.80;47.50
46784;DHT22;32544;52.832;13.816;2024-03-06T03:01:20;22.80;47.50
46784;DHT22;32544;52.832;13.816;2024-03-06T03:02:21;22.80;47.50
46784;DHT22;32544;52.832;13.816;2024-03-06T03:03:21;23.00;48.20
46784;DHT22;32544;52.832;13.816;2024-03-06T03:04:22;22.80;47.50
46784;DHT22;32544;52.832;13.816;2024-03-06T03:05:23;22.80;47.50
46784;DHT22;32544;52.832;13.816;2024-03-06T03:06:24;22.80;47.50
46784;DHT22;32544;52.832;13.816;2024-03-06T03:07:24;22.80;47.50
46784;DHT22;32544;52.832;13.816;2024-03-06T03:08:25;22.80;47.50
46784;DHT22;32544;52.832;13.816;2024-03-06T03:09:25;22.90;47.50
46784;DHT22;32544;52.832;13.816;2024-03-06T03:10:26;22.90;47.50
46784;DHT22;32544;52.832;13.816;2024-03-06T03:11:27;22.90;47.50
46784;DHT22;32544;52.832;13.816;2024-03-06T03:12:27;22.90;47.50
46784;DHT22;32544;52.832;13.816;2024-03-06T03:13:28;22.90;47.50
46784;DHT22;32544;52.832;13.816;2024-03-06T03:14:28;22.90;47.50
46784;DHT22;32544;52.832;13.816;2024-03-06T03:15:29;22.80;47.40
46784;DHT22;32544;52.832;13.816;2024-03-06T03:16:29;22.90;47.50
46784;DHT22;32544;52.832;13.816;2024-03-06T03:17:32;22.90;47.50
46784;DHT22;32544;52.832;13.816;2024-03-06T03:18:34;22.80;47.40
46784;DHT22;32544;52.832;13.816;2024-03-06T03:19:34;22.90;47.50
46784;DHT22;32544;52.832;13.816;2024-03-06T03:20:35;22.90;47.50
46784;DHT22;32544;52.832;13.816;2024-03-06T03:21:36;22.90;47.50
46784;DHT22;32544;52.832;13.816;2024-03-06T03:22:40;22.90;47.50
46784;DHT22;32544;52.832;13.816;2024-03-06T03:23:41;22.90;47.50
46784;DHT22;32544;52.832;13.816;2024-03-06T03:24:42;22.90;47.50
46784;DHT22;32544;52.832;13.816;2024-03-06T03:25:42;22.90;47.50
46784;DHT22;32544;52.832;13.816;2024-03-06T03:26:43;22.90;47.50
46784;DHT22;32544;52.832;13.816;2024-03-06T03:27:43;22.90;47.50
46784;DHT22;32544;52.832;13.816;2024-03-06T03:28:44;22.90;47.50
46784;DHT22;32544;52.832;13.816;2024-03-06T03:29:45;22.80;47.50
46784;DHT22;32544;52.832;13.816;2024-03-06T03:30:45;22.80;47.50
46784;DHT22;32544;52.832;13.816;2024-03-06T03:31:46;22.80;47.50
46784;DHT22;32544;52.832;13.816;2024-03-06T03:32:47;22.80;47.50
46784;DHT22;32544;52.832;13.816;2024-03-06T03:33:48;22.80;47.50
46784;DHT22;32544;52.832;13.816;2024-03-06T03:34:49;22.80;47.50
46784;DHT22;32544;52.832;13.816;2024-03-06T03:35:49;22.80;47.50
46784;DHT22;32544;52.832;13.816;2024-03-06T03:36:50;22.80;47.50
46784;DHT22;32544;52.832;13.816;2024-03-06T03:37:51;22.80;47.50
46784;DHT22;32544;52.832;13.816;2024-03-06T03:38:52;22.80;47.50
46784;DHT22;32544;52.832;13.816;2024-03-06T03:39:52;22.80;47.50
46784;DHT22;32544;52.832;13.816;2024-03-06T03:40:53;22.80;47.50
46784;DHT22;32544;52.832;13.816;2024-03-06T03:41:53;22.80;47.50
46784;DHT22;32544;52.832;13.816;2024-03-06T03:42:54;22.80;47.50
46784;DHT22;32544;52.832;13.816;2024-03-06T03:43:54;22.80;47.50
46784;DHT22;32544;52.832;13.816;2024-03-06T03:44:55;22.80;47.50
46784;DHT22;32544;52.832;13.816;2024-03-06T03:45:56;22.80;47.50
46784;DHT22;32544;52.832;13.816;2024-03-06T03:46:56;22.80;47.50
46784;DHT22;32544;52.832;13.816;2024-03-06T03:47:57;22.80;47.50
46784;DHT22;32544;52.832;13.816;2024-03-06T03:48:58;22.80;47.50
46784;DHT22;32544;52.832;13.816;2024-03-06T03:49:59;22.80;47.50
46784;DHT22;32544;52.832;13.816;2024-03-06T03:50:59;22.80;47.50
46784;DHT22;32544;52.832;13.816;2024-03-06T03:52:00;22.80;47.50
46784;DHT22;32544;52.832;13.816;2024-03-06T03:53:00;22.80;47.50
46784;DHT22;32544;52.832;13.816;2024-03-06T03:54:01;22.80;47.50
46784;DHT22;32544;52.832;13.816;2024-03-06T03:55:02;22.80;47.50
46784;DHT22;32544;52.832;13.816;2024-03-06T03:56:03;22.80;47.50
46784;DHT22;32544;52.832;13.816;2024-03-06T03:57:04;22.80;47.50
46784;DHT22;32544;52.832;13.816;2024-03-06T03:58:07;22.80;47.50
46784;DHT22;32544;52.832;13.816;2024-03-06T03:59:07;22.80;47.50
46784;DHT22;32544;52.832;13.816;2024-03-06T04:00:08;22.80;48.10
46784;DHT22;32544;52.832;13.816;2024-03-06T04:01:12;22.80;47.50
46784;DHT22;32544;52.832;13.816;2024-03-06T04:02:13;22.80;47.50
46784;DHT22;32544;52.832;13.816;2024-03-06T04:03:13;22.80;47.50
46784;DHT22;32544;52.832;13.816;2024-03-06T04:04:14;22.80;47.50
46784;DHT22;32544;52.832;13.816;2024-03-06T04:05:14;22.80;47.50
46784;DHT22;32544;52.832;13.816;2024-03-06T04:06:15;22.80;47.50
46784;DHT22;32544;52.832;13.816;2024-03-06T04:07:15;22.80;47.50
46784;DHT22;32544;52.832;13.816;2024-03-06T04:08:16;22.80;47.50
46784;DHT22;32544;52.832;13.816;2024-03-06T04:09:17;22.80;47.50
46784;DHT22;32544;52.832;13.816;2024-03-06T04:10:17;22.80;47.50
46784;DHT22;32544;52.832;13.816;2024-03-06T04:11:18;22.80;47.50
46784;DHT22;32544;52.832;13.816;2024-03-06T04:12:18;22.80;47.50
46784;DHT22;32544;52.832;13.816;2024-03-06T04:13:19;22.80;47.50
46784;DHT22;32544;52.832;13.816;2024-03-06T04:14:20;22.80;47.50
46784;DHT22;32544;52.832;13.816;2024-03-06T04:15:21;22.80;47.50
46784;DHT22;32544;52.832;13.816;2024-03-06T04:16:22;22.80;47.50
46784;DHT22;32544;52.832;13.816;2024-03-06T04:17:23;22.80;47.50
46784;DHT22;32544;52.832;13.816;2024-03-06T04:18:23;22.80;47.50
46784;DHT22;32544;52.832;13.816;2024-03-06T04:19:24;22.80;47.50
46784;DHT22;32544;52.832;13.816;2024-03-06T04:20:24;22.80;47.50
46784;DHT22;32544;52.832;13.816;2024-03-06T04:21:25;22.80;47.50
46784;DHT22;32544;52.832;13.816;2024-03-06T04:22:25;22.80;47.50
46784;DHT22;32544;52.832;13.816;2024-03-06T04:23:26;22.80;47.50
46784;DHT22;32544;52.832;13.816;2024-03-06T04:24:27;22.80;47.50
46784;DHT22;32544;52.832;13.816;2024-03-06T04:25:29;22.80;47.50
46784;DHT22;32544;52.832;13.816;2024-03-06T04:26:29;22.80;47.50
46784;DHT22;32544;52.832;13.816;2024-03-06T04:27:30;22.80;47.50
46784;DHT22;32544;52.832;13.816;2024-03-06T04:28:31;22.80;47.50
46784;DHT22;32544;52.832;13.816;2024-03-06T04:29:32;22.90;47.50
46784;DHT22;32544;52.832;13.816;2024-03-06T04:30:33;22.90;47.50
46784;DHT22;32544;52.832;13.816;2024-03-06T04:31:34;22.90;47.50
46784;DHT22;32544;52.832;13.816;2024-03-06T04:32:35;22.90;47.50
46784;DHT22;32544;52.832;13.816;2024-03-06T04:33:36;22.90;47.50
46784;DHT22;32544;52.832;13.816;2024-03-06T04:34:36;22.90;47.40
46784;DHT22;32544;52.832;13.816;2024-03-06T04:35:37;22.90;47.40
46784;DHT22;32544;52.832;13.816;2024-03-06T04:36:38;22.90;47.40
46784;DHT22;32544;52.832;13.816;2024-03-06T04:37:38;22.90;47.40
46784;DHT22;32544;52.832;13.816;2024-03-06T04:38:39;22.90;47.40
46784;DHT22;32544;52.832;13.816;2024-03-06T04:39:40;22.90;47.40
46784;DHT22;32544;52.832;13.816;2024-03-06T04:40:41;22.90;47.40
46784;DHT22;32544;52.832;13.816;2024-03-06T04:41:41;22.90;47.40
46784;DHT22;32544;52.832;13.816;2024-03-06T04:42:42;22.90;47.40
46784;DHT22;32544;52.832;13.816;2024-03-06T04:43:42;22.90;47.40
46784;DHT22;32544;52.832;13.816;2024-03-06T04:44:45;22.90;47.40
46784;DHT22;32544;52.832;13.816;2024-03-06T04:45:45;22.90;47.40
46784;DHT22;32544;52.832;13.816;2024-03-06T04:46:49;22.90;47.40
46784;DHT22;32544;52.832;13.816;2024-03-06T04:47:49;22.90;47.40
46784;DHT22;32544;52.832;13.816;2024-03-06T04:48:50;22.90;47.40
46784;DHT22;32544;52.832;13.816;2024-03-06T04:49:50;22.80;47.40
46784;DHT22;32544;52.832;13.816;2024-03-06T04:50:51;22.80;47.40
46784;DHT22;32544;52.832;13.816;2024-03-06T04:51:52;22.90;47.50
46784;DHT22;32544;52.832;13.816;2024-03-06T04:52:52;22.80;47.40
46784;DHT22;32544;52.832;13.816;2024-03-06T04:53:53;22.80;47.40
46784;DHT22;32544;52.832;13.816;2024-03-06T04:54:54;22.80;47.40
46784;DHT22;32544;52.832;13.816;2024-03-06T04:55:54;22.80;47.40
46784;DHT22;32544;52.832;13.816;2024-03-06T04:56:55;22.80;47.40
46784;DHT22;32544;52.832;13.816;2024-03-06T04:57:56;22.80;47.50
46784;DHT22;32544;52.832;13.816;2024-03-06T04:58:56;22.80;47.50
46784;DHT22;32544;52.832;13.816;2024-03-06T04:59:58;22.80;47.50
46784;DHT22;32544;52.832;13.816;2024-03-06T05:01:06;22.80;47.50
46784;DHT22;32544;52.832;13.816;2024-03-06T05:02:07;22.80;48.10
46784;DHT22;32544;52.832;13.816;2024-03-06T05:03:08;22.80;48.10
46784;DHT22;32544;52.832;13.816;2024-03-06T05:04:08;22.80;47.50
46784;DHT22;32544;52.832;13.816;2024-03-06T05:05:09;22.80;47.50
46784;DHT22;32544;52.832;13.816;2024-03-06T05:06:09;22.80;47.50
46784;DHT22;32544;52.832;13.816;2024-03-06T05:07:10;22.80;47.50
46784;DHT22;32544;52.832;13.816;2024-03-06T05:08:10;22.80;47.50
46784;DHT22;32544;52.832;13.816;2024-03-06T05:09:11;22.80;47.50
46784;DHT22;32544;52.832;13.816;2024-03-06T05:10:12;22.80;47.50
46784;DHT22;32544;52.832;13.816;2024-03-06T05:11:12;22.80;47.50
46784;DHT22;32544;52.832;13.816;2024-03-06T05:12:13;22.80;47.50
46784;DHT22;32544;52.832;13.816;2024-03-06T05:13:14;22.80;47.50
46784;DHT22;32544;52.832;13.816;2024-03-06T05:14:14;22.80;47.50
46784;DHT22;32544;52.832;13.816;2024-03-06T05:15:15;22.80;47.50
46784;DHT22;32544;52.832;13.816;2024-03-06T05:16:15;22.80;47.50
46784;DHT22;32544;52.832;13.816;2024-03-06T05:17:16;22.80;47.50
46784;DHT22;32544;52.832;13.816;2024-03-06T05:18:16;22.80;47.50
46784;DHT22;32544;52.832;13.816;2024-03-06T05:19:17;22.80;47.50
46784;DHT22;32544;52.832;13.816;2024-03-06T05:20:17;22.80;47.50
46784;DHT22;32544;52.832;13.816;2024-03-06T05:21:18;22.80;47.50
46784;DHT22;32544;52.832;13.816;2024-03-06T05:22:20;22.80;47.50
46784;DHT22;32544;52.832;13.816;2024-03-06T05:23:21;22.80;47.50
46784;DHT22;32544;52.832;13.816;2024-03-06T05:24:22;22.80;47.50
46784;DHT22;32544;52.832;13.816;2024-03-06T05:25:22;22.80;47.50
46784;DHT22;32544;52.832;13.816;2024-03-06T05:26:23;22.80;47.50
46784;DHT22;32544;52.832;13.816;2024-03-06T05:27:24;22.80;47.50
46784;DHT22;32544;52.832;13.816;2024-03-06T05:28:25;22.80;47.50
46784;DHT22;32544;52.832;13.816;2024-03-06T05:29:25;22.80;47.50
46784;DHT22;32544;52.832;13.816;2024-03-06T05:30:26;22.80;47.50
46784;DHT22;32544;52.832;13.816;2024-03-06T05:31:27;22.80;47.50
46784;DHT22;32544;52.832;13.816;2024-03-06T05:32:27;22.80;47.50
46784;DHT22;32544;52.832;13.816;2024-03-06T05:33:28;22.80;47.50
46784;DHT22;32544;52.832;13.816;2024-03-06T05:34:29;22.80;47.50
46784;DHT22;32544;52.832;13.816;2024-03-06T05:35:30;22.80;47.50
46784;DHT22;32544;52.832;13.816;2024-03-06T05:36:30;22.80;47.50
46784;DHT22;32544;52.832;13.816;2024-03-06T05:37:31;22.80;47.80
46784;DHT22;32544;52.832;13.816;2024-03-06T05:38:32;22.80;47.40
46784;DHT22;32544;52.832;13.816;2024-03-06T05:39:33;22.80;47.50
46784;DHT22;32544;52.832;13.816;2024-03-06T05:40:37;22.80;47.50
46784;DHT22;32544;52.832;13.816;2024-03-06T05:41:40;22.80;47.50
46784;DHT22;32544;52.832;13.816;2024-03-06T05:42:42;22.80;47.50
46784;DHT22;32544;52.832;13.816;2024-03-06T05:43:42;22.80;47.50
46784;DHT22;32544;52.832;13.816;2024-03-06T05:44:43;22.80;47.50
46784;DHT22;32544;52.832;13.816;2024-03-06T05:45:43;22.80;47.50
46784;DHT22;32544;52.832;13.816;2024-03-06T05:46:44;22.80;47.50
46784;DHT22;32544;52.832;13.816;2024-03-06T05:47:45;22.80;47.50
46784;DHT22;32544;52.832;13.816;2024-03-06T05:48:48;22.80;47.50
46784;DHT22;32544;52.832;13.816;2024-03-06T05:49:48;22.70;47.40
46784;DHT22;32544;52.832;13.816;2024-03-06T05:50:49;22.70;47.40
46784;DHT22;32544;52.832;13.816;2024-03-06T05:51:50;22.80;47.50
46784;DHT22;32544;52.832;13.816;2024-03-06T05:52:50;22.70;47.40
46784;DHT22;32544;52.832;13.816;2024-03-06T05:53:51;22.70;47.40
46784;DHT22;32544;52.832;13.816;2024-03-06T05:54:51;22.80;47.50
46784;DHT22;32544;52.832;13.816;2024-03-06T05:55:52;22.70;47.40
46784;DHT22;32544;52.832;13.816;2024-03-06T05:56:53;22.70;47.40
46784;DHT22;32544;52.832;13.816;2024-03-06T05:57:54;22.80;47.50
46784;DHT22;32544;52.832;13.816;2024-03-06T05:58:54;22.80;47.50
46784;DHT22;32544;52.832;13.816;2024-03-06T05:59:55;22.80;47.50
46784;DHT22;32544;52.832;13.816;2024-03-06T06:00:55;22.80;47.50
46784;DHT22;32544;52.832;13.816;2024-03-06T06:01:56;22.70;47.40
46784;DHT22;32544;52.832;13.816;2024-03-06T06:02:57;22.80;47.50
46784;DHT22;32544;52.832;13.816;2024-03-06T06:03:57;22.80;47.50
46784;DHT22;32544;52.832;13.816;2024-03-06T06:04:58;22.80;47.50
46784;DHT22;32544;52.832;13.816;2024-03-06T06:05:58;22.80;47.50
46784;DHT22;32544;52.832;13.816;2024-03-06T06:06:59;22.80;47.50
46784;DHT22;32544;52.832;13.816;2024-03-06T06:07:59;22.80;47.50
46784;DHT22;32544;52.832;13.816;2024-03-06T06:09:00;22.80;47.50
46784;DHT22;32544;52.832;13.816;2024-03-06T06:10:01;22.80;47.50
46784;DHT22;32544;52.832;13.816;2024-03-06T06:11:01;22.80;47.50
46784;DHT22;32544;52.832;13.816;2024-03-06T06:12:03;22.80;47.50
46784;DHT22;32544;52.832;13.816;2024-03-06T06:13:04;22.80;47.50
46784;DHT22;32544;52.832;13.816;2024-03-06T06:14:05;22.80;47.50
46784;DHT22;32544;52.832;13.816;2024-03-06T06:15:05;22.80;47.50
46784;DHT22;32544;52.832;13.816;2024-03-06T06:16:07;22.80;47.50
46784;DHT22;32544;52.832;13.816;2024-03-06T06:17:08;22.80;47.40
46784;DHT22;32544;52.832;13.816;2024-03-06T06:18:08;22.80;47.50